CDA Airport (Caledonia County) Information

FAA: CDA - ICAO: KCDA

CDA Airport Location

State Vermont
County Caledonia
City Lyndonville
CDA Airport is 3 miles north of Lyndonville, VT.
Latitude 44-34-08.8110N
Longitude 072-01-04.7240W
Elevation 1,187ft

KCDA Airport METARs

METAR KCDA 060555Z AUTO 00000KT 5SM BR OVC002 17/16 A2973 RMK AO2 T01650159 10170 20161
Altimeter 29.73"
Temperature 16.5°C (61.7°F)
Wind 0° at 0KT
Clouds overcast at 200ft
Visibility 5.0mi
Time observed: 2022-07-06T05:55:00Z

CDA Airport Details

Status Operational
Activation August 1969
Ownership Public
Usage Public
Chart MONTREAL
ATC on-site No
Beacon schedule N/A
Beacon color clear green

CDA Airport Contacts

Owner STATE OF VERMONT
Owner address 219 NORTH MAIN STREET, BARRE, VT 05641-5001
Owner phone (802) 476-2690
Manager FLETCHER ALLEN HEALTH CARE
Manager address 111 COLCHESTER AVE, BURLINGTON, VT 05401
Manager phone 802-847-0000

CDA Airport (Caledonia County) Radio Frequencies

CDA (Airport) Radio Frequencies

UNICOM 122.8
Common traffic advisory frequency (CTAF) 122.8